sensor_id;sensor_type;location;lat;lon;timestamp;temperature;humidity
69393;SHT31;56582;44.624;20.378;2022-10-30T00:01:51;17.05;74.44
69393;SHT31;56582;44.624;20.378;2022-10-30T00:04:17;17.00;74.04
69393;SHT31;56582;44.624;20.378;2022-10-30T00:06:42;17.06;73.77
69393;SHT31;56582;44.624;20.378;2022-10-30T00:09:09;17.16;73.31
69393;SHT31;56582;44.624;20.378;2022-10-30T00:11:34;17.16;73.81
69393;SHT31;56582;44.624;20.378;2022-10-30T00:14:00;17.13;73.55
69393;SHT31;56582;44.624;20.378;2022-10-30T00:16:25;17.26;72.47
69393;SHT31;56582;44.624;20.378;2022-10-30T00:18:51;17.09;73.59
69393;SHT31;56582;44.624;20.378;2022-10-30T00:21:16;16.95;74.17
69393;SHT31;56582;44.624;20.378;2022-10-30T00:23:47;16.93;74.11
69393;SHT31;56582;44.624;20.378;2022-10-30T00:26:14;17.03;73.84
69393;SHT31;56582;44.624;20.378;2022-10-30T00:28:39;17.09;73.88
69393;SHT31;56582;44.624;20.378;2022-10-30T00:31:05;17.10;74.09
69393;SHT31;56582;44.624;20.378;2022-10-30T00:33:31;17.13;73.35
69393;SHT31;56582;44.624;20.378;2022-10-30T00:35:56;17.15;72.73
69393;SHT31;56582;44.624;20.378;2022-10-30T00:38:22;17.13;72.79
69393;SHT31;56582;44.624;20.378;2022-10-30T00:40:48;17.12;72.95
69393;SHT31;56582;44.624;20.378;2022-10-30T00:43:38;17.13;72.74
69393;SHT31;56582;44.624;20.378;2022-10-30T00:48:39;17.20;72.49
69393;SHT31;56582;44.624;20.378;2022-10-30T00:51:08;17.23;72.23
69393;SHT31;56582;44.624;20.378;2022-10-30T00:53:35;17.23;72.49
69393;SHT31;56582;44.624;20.378;2022-10-30T00:56:05;17.20;72.48
69393;SHT31;56582;44.624;20.378;2022-10-30T00:58:35;17.13;72.30
69393;SHT31;56582;44.624;20.378;2022-10-30T01:01:05;17.08;72.70
69393;SHT31;56582;44.624;20.378;2022-10-30T01:03:32;17.03;72.84
69393;SHT31;56582;44.624;20.378;2022-10-30T01:06:02;17.00;72.91
69393;SHT31;56582;44.624;20.378;2022-10-30T01:08:29;17.06;72.63
69393;SHT31;56582;44.624;20.378;2022-10-30T01:10:57;16.95;72.46
69393;SHT31;56582;44.624;20.378;2022-10-30T01:13:23;16.82;73.00
69393;SHT31;56582;44.624;20.378;2022-10-30T01:16:17;16.71;73.27
69393;SHT31;56582;44.624;20.378;2022-10-30T01:18:51;16.60;74.11
69393;SHT31;56582;44.624;20.378;2022-10-30T01:21:40;16.60;74.81
69393;SHT31;56582;44.624;20.378;2022-10-30T01:24:14;16.50;74.69
69393;SHT31;56582;44.624;20.378;2022-10-30T01:34:54;16.51;74.41
69393;SHT31;56582;44.624;20.378;2022-10-30T01:37:37;16.60;75.00
69393;SHT31;56582;44.624;20.378;2022-10-30T01:40:10;16.62;74.10
69393;SHT31;56582;44.624;20.378;2022-10-30T01:48:34;16.91;72.76
69393;SHT31;56582;44.624;20.378;2022-10-30T01:59:24;16.92;72.39
69393;SHT31;56582;44.624;20.378;2022-10-30T02:01:50;16.92;72.55
69393;SHT31;56582;44.624;20.378;2022-10-30T02:04:16;16.89;72.82
69393;SHT31;56582;44.624;20.378;2022-10-30T02:06:41;16.93;72.55
69393;SHT31;56582;44.624;20.378;2022-10-30T02:09:07;16.99;72.00
69393;SHT31;56582;44.624;20.378;2022-10-30T02:11:33;16.93;71.94
69393;SHT31;56582;44.624;20.378;2022-10-30T02:14:03;16.86;72.15
69393;SHT31;56582;44.624;20.378;2022-10-30T02:16:32;16.91;72.42
69393;SHT31;56582;44.624;20.378;2022-10-30T02:18:58;16.86;72.44
69393;SHT31;56582;44.624;20.378;2022-10-30T02:21:25;16.92;72.26
69393;SHT31;56582;44.624;20.378;2022-10-30T02:23:51;17.00;72.06
69393;SHT31;56582;44.624;20.378;2022-10-30T02:26:16;17.10;71.86
69393;SHT31;56582;44.624;20.378;2022-10-30T02:28:42;17.13;71.58
69393;SHT31;56582;44.624;20.378;2022-10-30T02:31:07;17.26;71.43
69393;SHT31;56582;44.624;20.378;2022-10-30T02:33:33;17.37;70.84
69393;SHT31;56582;44.624;20.378;2022-10-30T02:35:58;17.33;70.65
69393;SHT31;56582;44.624;20.378;2022-10-30T02:38:23;17.49;70.15
69393;SHT31;56582;44.624;20.378;2022-10-30T02:40:49;17.43;70.19
69393;SHT31;56582;44.624;20.378;2022-10-30T02:43:14;17.81;68.80
69393;SHT31;56582;44.624;20.378;2022-10-30T02:45:40;17.74;69.23
69393;SHT31;56582;44.624;20.378;2022-10-30T02:48:05;17.66;69.48
69393;SHT31;56582;44.624;20.378;2022-10-30T02:50:31;17.47;68.66
69393;SHT31;56582;44.624;20.378;2022-10-30T02:52:58;16.72;69.72
69393;SHT31;56582;44.624;20.378;2022-10-30T02:55:23;15.76;70.84
69393;SHT31;56582;44.624;20.378;2022-10-30T02:57:48;15.21;72.88
69393;SHT31;56582;44.624;20.378;2022-10-30T03:00:14;15.12;73.87
69393;SHT31;56582;44.624;20.378;2022-10-30T03:02:39;14.88;74.63
69393;SHT31;56582;44.624;20.378;2022-10-30T03:05:05;14.46;75.85
69393;SHT31;56582;44.624;20.378;2022-10-30T03:07:31;14.38;77.28
69393;SHT31;56582;44.624;20.378;2022-10-30T03:09:56;14.12;77.42
69393;SHT31;56582;44.624;20.378;2022-10-30T03:12:22;13.97;78.18
69393;SHT31;56582;44.624;20.378;2022-10-30T03:14:47;14.43;79.67
69393;SHT31;56582;44.624;20.378;2022-10-30T03:17:12;14.93;79.05
69393;SHT31;56582;44.624;20.378;2022-10-30T03:19:38;15.36;77.26
69393;SHT31;56582;44.624;20.378;2022-10-30T03:22:05;15.81;76.94
69393;SHT31;56582;44.624;20.378;2022-10-30T03:24:30;16.17;75.32
69393;SHT31;56582;44.624;20.378;2022-10-30T03:26:56;16.47;73.39
69393;SHT31;56582;44.624;20.378;2022-10-30T03:29:21;16.40;71.96
69393;SHT31;56582;44.624;20.378;2022-10-30T03:31:47;16.50;72.30
69393;SHT31;56582;44.624;20.378;2022-10-30T03:34:12;16.34;71.92
69393;SHT31;56582;44.624;20.378;2022-10-30T03:36:37;16.33;72.68
69393;SHT31;56582;44.624;20.378;2022-10-30T03:39:03;16.79;71.45
69393;SHT31;56582;44.624;20.378;2022-10-30T03:41:29;16.86;71.16
69393;SHT31;56582;44.624;20.378;2022-10-30T03:43:54;16.96;70.80
69393;SHT31;56582;44.624;20.378;2022-10-30T03:46:20;17.05;70.68
69393;SHT31;56582;44.624;20.378;2022-10-30T03:48:50;17.24;70.18
69393;SHT31;56582;44.624;20.378;2022-10-30T03:51:15;17.27;70.21
69393;SHT31;56582;44.624;20.378;2022-10-30T03:53:41;17.50;70.52
69393;SHT31;56582;44.624;20.378;2022-10-30T03:56:06;17.39;71.48
69393;SHT31;56582;44.624;20.378;2022-10-30T03:58:32;17.41;71.60
69393;SHT31;56582;44.624;20.378;2022-10-30T04:01:02;17.43;72.14
69393;SHT31;56582;44.624;20.378;2022-10-30T04:03:27;17.71;71.86
69393;SHT31;56582;44.624;20.378;2022-10-30T04:05:53;17.64;71.62
69393;SHT31;56582;44.624;20.378;2022-10-30T04:08:18;17.68;71.48
69393;SHT31;56582;44.624;20.378;2022-10-30T04:10:45;17.63;71.18
69393;SHT31;56582;44.624;20.378;2022-10-30T04:13:12;17.67;70.32
69393;SHT31;56582;44.624;20.378;2022-10-30T04:15:38;17.70;70.67
69393;SHT31;56582;44.624;20.378;2022-10-30T04:18:04;17.77;70.99
69393;SHT31;56582;44.624;20.378;2022-10-30T04:20:30;17.89;70.78
69393;SHT31;56582;44.624;20.378;2022-10-30T04:23:03;17.82;70.95
69393;SHT31;56582;44.624;20.378;2022-10-30T04:25:29;17.84;71.48
69393;SHT31;56582;44.624;20.378;2022-10-30T04:27:55;17.87;71.19
69393;SHT31;56582;44.624;20.378;2022-10-30T04:30:21;17.87;71.22
69393;SHT31;56582;44.624;20.378;2022-10-30T04:32:51;17.91;70.68
69393;SHT31;56582;44.624;20.378;2022-10-30T04:35:18;17.58;69.44
69393;SHT31;56582;44.624;20.378;2022-10-30T04:38:04;17.74;71.29
69393;SHT31;56582;44.624;20.378;2022-10-30T04:40:32;17.81;71.29
69393;SHT31;56582;44.624;20.378;2022-10-30T04:42:58;17.85;71.29
69393;SHT31;56582;44.624;20.378;2022-10-30T04:45:23;17.87;71.24
69393;SHT31;56582;44.624;20.378;2022-10-30T04:47:49;17.91;70.83
69393;SHT31;56582;44.624;20.378;2022-10-30T04:50:15;17.95;70.46
69393;SHT31;56582;44.624;20.378;2022-10-30T04:52:41;18.05;70.39
69393;SHT31;56582;44.624;20.378;2022-10-30T04:55:08;17.98;70.71
69393;SHT31;56582;44.624;20.378;2022-10-30T04:57:33;18.09;70.49
69393;SHT31;56582;44.624;20.378;2022-10-30T05:00:03;18.08;70.37
69393;SHT31;56582;44.624;20.378;2022-10-30T05:02:28;18.08;70.21
69393;SHT31;56582;44.624;20.378;2022-10-30T05:04:53;17.77;71.01
69393;SHT31;56582;44.624;20.378;2022-10-30T05:07:19;17.64;71.76
69393;SHT31;56582;44.624;20.378;2022-10-30T05:09:44;17.67;71.85
69393;SHT31;56582;44.624;20.378;2022-10-30T05:12:10;17.77;71.64
69393;SHT31;56582;44.624;20.378;2022-10-30T05:14:35;17.85;71.22
69393;SHT31;56582;44.624;20.378;2022-10-30T05:17:01;17.89;71.13
69393;SHT31;56582;44.624;20.378;2022-10-30T05:19:26;17.85;71.20
69393;SHT31;56582;44.624;20.378;2022-10-30T05:21:52;17.85;71.11
69393;SHT31;56582;44.624;20.378;2022-10-30T05:24:18;17.92;70.53
69393;SHT31;56582;44.624;20.378;2022-10-30T05:26:43;17.46;72.01
69393;SHT31;56582;44.624;20.378;2022-10-30T05:29:09;17.54;72.03
69393;SHT31;56582;44.624;20.378;2022-10-30T05:31:34;17.71;71.29
69393;SHT31;56582;44.624;20.378;2022-10-30T05:34:00;17.78;71.24
69393;SHT31;56582;44.624;20.378;2022-10-30T05:36:25;17.85;71.02
69393;SHT31;56582;44.624;20.378;2022-10-30T05:38:51;18.18;70.15
69393;SHT31;56582;44.624;20.378;2022-10-30T05:41:17;18.10;70.30
69393;SHT31;56582;44.624;20.378;2022-10-30T05:43:42;18.15;69.72
69393;SHT31;56582;44.624;20.378;2022-10-30T05:46:08;18.12;69.54
69393;SHT31;56582;44.624;20.378;2022-10-30T05:48:33;18.13;69.38
69393;SHT31;56582;44.624;20.378;2022-10-30T05:50:58;18.06;70.08
69393;SHT31;56582;44.624;20.378;2022-10-30T05:53:24;18.06;69.62
69393;SHT31;56582;44.624;20.378;2022-10-30T05:55:50;18.18;69.34
69393;SHT31;56582;44.624;20.378;2022-10-30T05:58:15;18.08;69.40
69393;SHT31;56582;44.624;20.378;2022-10-30T06:00:41;18.01;69.62
69393;SHT31;56582;44.624;20.378;2022-10-30T06:03:12;17.97;69.84
69393;SHT31;56582;44.624;20.378;2022-10-30T06:05:38;18.01;69.53
69393;SHT31;56582;44.624;20.378;2022-10-30T06:08:06;17.98;69.40
69393;SHT31;56582;44.624;20.378;2022-10-30T06:10:32;17.92;69.39
69393;SHT31;56582;44.624;20.378;2022-10-30T06:13:01;17.98;69.69
69393;SHT31;56582;44.624;20.378;2022-10-30T06:15:27;17.97;70.02
69393;SHT31;56582;44.624;20.378;2022-10-30T06:17:53;17.94;69.65
69393;SHT31;56582;44.624;20.378;2022-10-30T06:20:20;17.99;69.47
69393;SHT31;56582;44.624;20.378;2022-10-30T06:22:57;17.97;69.42
69393;SHT31;56582;44.624;20.378;2022-10-30T06:25:23;18.01;69.08
69393;SHT31;56582;44.624;20.378;2022-10-30T06:27:49;18.19;68.15
69393;SHT31;56582;44.624;20.378;2022-10-30T06:30:15;18.35;68.36
69393;SHT31;56582;44.624;20.378;2022-10-30T06:32:41;18.30;68.85
69393;SHT31;56582;44.624;20.378;2022-10-30T06:35:08;18.56;68.11
69393;SHT31;56582;44.624;20.378;2022-10-30T06:37:33;18.74;67.24
69393;SHT31;56582;44.624;20.378;2022-10-30T06:39:59;18.68;66.88
69393;SHT31;56582;44.624;20.378;2022-10-30T06:42:24;18.78;66.17
69393;SHT31;56582;44.624;20.378;2022-10-30T06:44:50;18.73;66.21
69393;SHT31;56582;44.624;20.378;2022-10-30T06:47:15;18.71;66.17
69393;SHT31;56582;44.624;20.378;2022-10-30T06:49:41;18.81;65.96
69393;SHT31;56582;44.624;20.378;2022-10-30T06:52:07;18.84;65.90
69393;SHT31;56582;44.624;20.378;2022-10-30T06:54:32;18.66;66.05
69393;SHT31;56582;44.624;20.378;2022-10-30T06:56:57;18.83;66.06
69393;SHT31;56582;44.624;20.378;2022-10-30T06:59:23;19.00;66.27
69393;SHT31;56582;44.624;20.378;2022-10-30T07:01:48;19.14;65.72
69393;SHT31;56582;44.624;20.378;2022-10-30T07:04:14;19.03;65.93
69393;SHT31;56582;44.624;20.378;2022-10-30T07:06:39;18.61;66.95
69393;SHT31;56582;44.624;20.378;2022-10-30T07:09:05;19.01;65.91
69393;SHT31;56582;44.624;20.378;2022-10-30T07:11:30;19.11;65.54
69393;SHT31;56582;44.624;20.378;2022-10-30T07:13:55;18.90;66.34
69393;SHT31;56582;44.624;20.378;2022-10-30T07:16:21;17.61;71.25
69393;SHT31;56582;44.624;20.378;2022-10-30T07:18:46;17.67;70.60
69393;SHT31;56582;44.624;20.378;2022-10-30T07:21:12;18.02;69.29
69393;SHT31;56582;44.624;20.378;2022-10-30T07:23:37;18.49;68.60
69393;SHT31;56582;44.624;20.378;2022-10-30T07:26:03;18.93;67.27
69393;SHT31;56582;44.624;20.378;2022-10-30T07:28:28;19.31;66.32
69393;SHT31;56582;44.624;20.378;2022-10-30T07:30:57;19.53;65.56
69393;SHT31;56582;44.624;20.378;2022-10-30T07:33:22;19.74;64.81
69393;SHT31;56582;44.624;20.378;2022-10-30T07:35:48;20.21;63.43
69393;SHT31;56582;44.624;20.378;2022-10-30T07:38:13;20.34;63.20
69393;SHT31;56582;44.624;20.378;2022-10-30T07:40:39;20.35;63.37
69393;SHT31;56582;44.624;20.378;2022-10-30T07:43:04;20.51;62.66
69393;SHT31;56582;44.624;20.378;2022-10-30T07:45:30;20.38;64.38
69393;SHT31;56582;44.624;20.378;2022-10-30T07:47:56;20.37;65.33
69393;SHT31;56582;44.624;20.378;2022-10-30T07:50:22;20.35;66.07
69393;SHT31;56582;44.624;20.378;2022-10-30T07:52:47;20.51;65.15
69393;SHT31;56582;44.624;20.378;2022-10-30T07:55:13;20.72;63.27
69393;SHT31;56582;44.624;20.378;2022-10-30T07:57:40;20.53;63.34
69393;SHT31;56582;44.624;20.378;2022-10-30T08:00:09;20.45;63.19
69393;SHT31;56582;44.624;20.378;2022-10-30T08:02:34;20.27;63.68
69393;SHT31;56582;44.624;20.378;2022-10-30T08:05:00;20.24;63.57
69393;SHT31;56582;44.624;20.378;2022-10-30T08:07:33;20.06;64.05
69393;SHT31;56582;44.624;20.378;2022-10-30T08:09:59;20.10;64.03
69393;SHT31;56582;44.624;20.378;2022-10-30T08:12:25;20.03;64.39
69393;SHT31;56582;44.624;20.378;2022-10-30T08:14:51;20.13;63.99
69393;SHT31;56582;44.624;20.378;2022-10-30T08:17:17;20.04;64.15
69393;SHT31;56582;44.624;20.378;2022-10-30T08:19:42;19.93;64.50
69393;SHT31;56582;44.624;20.378;2022-10-30T08:22:09;19.89;64.56
69393;SHT31;56582;44.624;20.378;2022-10-30T08:24:35;19.70;65.14
69393;SHT31;56582;44.624;20.378;2022-10-30T08:27:01;19.69;65.30
69393;SHT31;56582;44.624;20.378;2022-10-30T08:29:26;19.46;67.33
69393;SHT31;56582;44.624;20.378;2022-10-30T08:31:51;19.34;67.44
69393;SHT31;56582;44.624;20.378;2022-10-30T08:34:17;19.59;66.39
69393;SHT31;56582;44.624;20.378;2022-10-30T08:36:42;19.26;67.99
69393;SHT31;56582;44.624;20.378;2022-10-30T08:39:08;17.75;73.00
69393;SHT31;56582;44.624;20.378;2022-10-30T08:41:34;16.81;76.20
69393;SHT31;56582;44.624;20.378;2022-10-30T08:43:59;17.39;74.10
69393;SHT31;56582;44.624;20.378;2022-10-30T08:46:25;17.99;71.96
69393;SHT31;56582;44.624;20.378;2022-10-30T08:48:50;18.43;70.77
69393;SHT31;56582;44.624;20.378;2022-10-30T08:51:15;18.70;70.25
69393;SHT31;56582;44.624;20.378;2022-10-30T08:53:41;19.03;69.40
69393;SHT31;56582;44.624;20.378;2022-10-30T08:56:07;19.29;68.15
69393;SHT31;56582;44.624;20.378;2022-10-30T08:58:32;19.56;68.36
69393;SHT31;56582;44.624;20.378;2022-10-30T09:00:57;19.67;67.23
69393;SHT31;56582;44.624;20.378;2022-10-30T09:03:23;19.38;68.32
69393;SHT31;56582;44.624;20.378;2022-10-30T09:05:48;19.59;67.92
69393;SHT31;56582;44.624;20.378;2022-10-30T09:08:14;19.70;67.39
69393;SHT31;56582;44.624;20.378;2022-10-30T09:10:39;19.49;68.08
69393;SHT31;56582;44.624;20.378;2022-10-30T09:13:05;19.52;67.67
69393;SHT31;56582;44.624;20.378;2022-10-30T09:15:31;19.67;67.29
69393;SHT31;56582;44.624;20.378;2022-10-30T09:17:59;19.65;67.20
69393;SHT31;56582;44.624;20.378;2022-10-30T09:20:25;19.62;66.61
69393;SHT31;56582;44.624;20.378;2022-10-30T09:22:51;19.49;68.02
69393;SHT31;56582;44.624;20.378;2022-10-30T09:25:17;19.46;67.23
69393;SHT31;56582;44.624;20.378;2022-10-30T09:27:43;19.53;67.29
69393;SHT31;56582;44.624;20.378;2022-10-30T09:30:08;19.46;70.68
69393;SHT31;56582;44.624;20.378;2022-10-30T09:32:34;20.03;64.66
69393;SHT31;56582;44.624;20.378;2022-10-30T09:34:59;20.49;64.08
69393;SHT31;56582;44.624;20.378;2022-10-30T09:37:25;20.31;67.18
69393;SHT31;56582;44.624;20.378;2022-10-30T09:39:51;20.14;65.38
69393;SHT31;56582;44.624;20.378;2022-10-30T09:42:29;20.45;64.71
69393;SHT31;56582;44.624;20.378;2022-10-30T09:50:56;21.10;62.66
69393;SHT31;56582;44.624;20.378;2022-10-30T09:53:50;21.02;63.09
69393;SHT31;56582;44.624;20.378;2022-10-30T09:56:26;21.00;63.24
69393;SHT31;56582;44.624;20.378;2022-10-30T10:04:27;20.28;64.02
69393;SHT31;56582;44.624;20.378;2022-10-30T10:07:18;20.44;64.86
69393;SHT31;56582;44.624;20.378;2022-10-30T10:09:44;20.51;67.29
69393;SHT31;56582;44.624;20.378;2022-10-30T10:14:50;20.68;64.09
69393;SHT31;56582;44.624;20.378;2022-10-30T10:17:26;20.64;65.06
69393;SHT31;56582;44.624;20.378;2022-10-30T10:20:00;20.48;64.62
69393;SHT31;56582;44.624;20.378;2022-10-30T10:22:33;20.44;64.39
69393;SHT31;56582;44.624;20.378;2022-10-30T10:25:06;20.07;66.41
69393;SHT31;56582;44.624;20.378;2022-10-30T10:30:30;20.51;66.20
69393;SHT31;56582;44.624;20.378;2022-10-30T10:38:39;19.83;64.97
69393;SHT31;56582;44.624;20.378;2022-10-30T10:52:22;19.19;64.39
69393;SHT31;56582;44.624;20.378;2022-10-30T10:54:52;19.44;63.56
69393;SHT31;56582;44.624;20.378;2022-10-30T10:57:28;19.61;66.18
69393;SHT31;56582;44.624;20.378;2022-10-30T11:00:15;19.51;64.11
69393;SHT31;56582;44.624;20.378;2022-10-30T11:03:08;19.83;64.78
69393;SHT31;56582;44.624;20.378;2022-10-30T11:05:38;20.13;63.56
69393;SHT31;56582;44.624;20.378;2022-10-30T11:08:23;19.87;63.53
69393;SHT31;56582;44.624;20.378;2022-10-30T11:11:00;20.31;63.93
69393;SHT31;56582;44.624;20.378;2022-10-30T11:13:34;20.38;63.12
69393;SHT31;56582;44.624;20.378;2022-10-30T11:18:54;20.35;64.08
69393;SHT31;56582;44.624;20.378;2022-10-30T11:21:23;20.59;64.02
69393;SHT31;56582;44.624;20.378;2022-10-30T11:23:49;20.58;63.54
69393;SHT31;56582;44.624;20.378;2022-10-30T11:28:53;20.13;63.59
69393;SHT31;56582;44.624;20.378;2022-10-30T11:31:20;20.27;65.08
69393;SHT31;56582;44.624;20.378;2022-10-30T11:33:46;20.56;64.61
69393;SHT31;56582;44.624;20.378;2022-10-30T11:36:18;20.58;65.69
69393;SHT31;56582;44.624;20.378;2022-10-30T11:38:45;20.52;64.14
69393;SHT31;56582;44.624;20.378;2022-10-30T11:41:12;20.67;63.49
69393;SHT31;56582;44.624;20.378;2022-10-30T11:43:39;20.82;63.22
69393;SHT31;56582;44.624;20.378;2022-10-30T11:46:08;21.11;61.43
69393;SHT31;56582;44.624;20.378;2022-10-30T11:48:37;20.78;60.45
69393;SHT31;56582;44.624;20.378;2022-10-30T11:51:04;20.34;62.31
69393;SHT31;56582;44.624;20.378;2022-10-30T11:53:32;20.13;62.11
69393;SHT31;56582;44.624;20.378;2022-10-30T11:56:01;20.18;63.22
69393;SHT31;56582;44.624;20.378;2022-10-30T11:58:30;20.47;64.26
69393;SHT31;56582;44.624;20.378;2022-10-30T12:03:39;20.76;63.50
69393;SHT31;56582;44.624;20.378;2022-10-30T12:09:21;20.65;60.01
69393;SHT31;56582;44.624;20.378;2022-10-30T12:11:47;20.53;59.30
69393;SHT31;56582;44.624;20.378;2022-10-30T12:14:19;20.55;59.61
69393;SHT31;56582;44.624;20.378;2022-10-30T12:16:46;20.51;58.56
69393;SHT31;56582;44.624;20.378;2022-10-30T12:19:13;20.45;59.50
69393;SHT31;56582;44.624;20.378;2022-10-30T12:21:50;20.71;58.86
69393;SHT31;56582;44.624;20.378;2022-10-30T12:24:28;20.85;56.93
69393;SHT31;56582;44.624;20.378;2022-10-30T12:26:56;20.68;57.34
69393;SHT31;56582;44.624;20.378;2022-10-30T12:29:36;20.21;58.13
69393;SHT31;56582;44.624;20.378;2022-10-30T12:32:07;20.03;59.39
69393;SHT31;56582;44.624;20.378;2022-10-30T12:34:50;20.10;59.81
69393;SHT31;56582;44.624;20.378;2022-10-30T12:37:30;20.21;59.01
69393;SHT31;56582;44.624;20.378;2022-10-30T12:39:59;20.14;59.41
69393;SHT31;56582;44.624;20.378;2022-10-30T12:42:25;20.07;59.37
69393;SHT31;56582;44.624;20.378;2022-10-30T12:47:38;20.17;59.79
69393;SHT31;56582;44.624;20.378;2022-10-30T12:50:34;20.25;60.16
69393;SHT31;56582;44.624;20.378;2022-10-30T12:53:35;20.20;58.66
69393;SHT31;56582;44.624;20.378;2022-10-30T12:56:16;20.23;58.19
69393;SHT31;56582;44.624;20.378;2022-10-30T13:01:33;20.24;58.81
69393;SHT31;56582;44.624;20.378;2022-10-30T13:04:17;20.18;59.72
69393;SHT31;56582;44.624;20.378;2022-10-30T13:09:34;20.24;59.64
69393;SHT31;56582;44.624;20.378;2022-10-30T13:12:06;20.21;58.63
69393;SHT31;56582;44.624;20.378;2022-10-30T13:14:41;20.18;60.45
69393;SHT31;56582;44.624;20.378;2022-10-30T13:17:13;20.16;60.87
69393;SHT31;56582;44.624;20.378;2022-10-30T13:19:40;20.25;60.69
69393;SHT31;56582;44.624;20.378;2022-10-30T13:22:32;20.31;62.41
69393;SHT31;56582;44.624;20.378;2022-10-30T13:27:54;20.45;61.93
69393;SHT31;56582;44.624;20.378;2022-10-30T13:30:26;20.30;61.24
69393;SHT31;56582;44.624;20.378;2022-10-30T13:35:55;20.21;60.30
69393;SHT31;56582;44.624;20.378;2022-10-30T13:40:58;19.83;61.41
69393;SHT31;56582;44.624;20.378;2022-10-30T13:48:42;19.73;62.67
69393;SHT31;56582;44.624;20.378;2022-10-30T13:51:36;19.83;61.87
69393;SHT31;56582;44.624;20.378;2022-10-30T13:54:34;19.80;62.02
69393;SHT31;56582;44.624;20.378;2022-10-30T14:02:39;19.39;63.98
69393;SHT31;56582;44.624;20.378;2022-10-30T14:10:57;19.18;65.38
69393;SHT31;56582;44.624;20.378;2022-10-30T14:13:27;19.05;66.05
69393;SHT31;56582;44.624;20.378;2022-10-30T14:16:01;18.97;67.45
69393;SHT31;56582;44.624;20.378;2022-10-30T14:19:15;18.76;68.46
69393;SHT31;56582;44.624;20.378;2022-10-30T14:21:38;18.83;68.71
69393;SHT31;56582;44.624;20.378;2022-10-30T14:24:20;18.73;69.29
69393;SHT31;56582;44.624;20.378;2022-10-30T14:31:57;18.76;69.36
69393;SHT31;56582;44.624;20.378;2022-10-30T14:37:08;18.76;69.70
69393;SHT31;56582;44.624;20.378;2022-10-30T14:39:38;18.49;70.44
69393;SHT31;56582;44.624;20.378;2022-10-30T14:55:49;17.79;73.50
69393;SHT31;56582;44.624;20.378;2022-10-30T14:58:22;17.74;73.77
69393;SHT31;56582;44.624;20.378;2022-10-30T15:00:49;17.74;74.06
69393;SHT31;56582;44.624;20.378;2022-10-30T15:06:25;17.63;74.43
69393;SHT31;56582;44.624;20.378;2022-10-30T15:09:21;17.50;74.95
69393;SHT31;56582;44.624;20.378;2022-10-30T15:12:09;17.44;75.30
69393;SHT31;56582;44.624;20.378;2022-10-30T15:14:45;17.36;75.67
69393;SHT31;56582;44.624;20.378;2022-10-30T15:17:21;17.29;76.06
69393;SHT31;56582;44.624;20.378;2022-10-30T15:19:48;17.27;76.10
69393;SHT31;56582;44.624;20.378;2022-10-30T15:22:18;17.18;76.60
69393;SHT31;56582;44.624;20.378;2022-10-30T15:24:44;17.27;76.14
69393;SHT31;56582;44.624;20.378;2022-10-30T15:27:14;17.26;76.16
69393;SHT31;56582;44.624;20.378;2022-10-30T15:29:47;17.13;76.65
69393;SHT31;56582;44.624;20.378;2022-10-30T15:32:16;17.16;76.43
69393;SHT31;56582;44.624;20.378;2022-10-30T15:34:59;17.27;76.34
69393;SHT31;56582;44.624;20.378;2022-10-30T15:37:27;17.22;76.60
69393;SHT31;56582;44.624;20.378;2022-10-30T15:40:16;17.22;77.49
69393;SHT31;56582;44.624;20.378;2022-10-30T15:42:42;17.22;77.88
69393;SHT31;56582;44.624;20.378;2022-10-30T15:45:16;17.15;77.57
69393;SHT31;56582;44.624;20.378;2022-10-30T15:48:43;17.09;79.42
69393;SHT31;56582;44.624;20.378;2022-10-30T15:50:44;17.08;77.86
69393;SHT31;56582;44.624;20.378;2022-10-30T15:53:20;16.95;79.11
69393;SHT31;56582;44.624;20.378;2022-10-30T15:55:49;17.00;77.56
69393;SHT31;56582;44.624;20.378;2022-10-30T15:58:17;16.86;77.81
69393;SHT31;56582;44.624;20.378;2022-10-30T16:00:57;16.95;77.17
69393;SHT31;56582;44.624;20.378;2022-10-30T16:03:23;16.83;77.60
69393;SHT31;56582;44.624;20.378;2022-10-30T16:05:49;16.73;79.27
69393;SHT31;56582;44.624;20.378;2022-10-30T16:08:23;16.78;79.11
69393;SHT31;56582;44.624;20.378;2022-10-30T16:10:52;16.68;78.70
69393;SHT31;56582;44.624;20.378;2022-10-30T16:13:22;16.57;79.47
69393;SHT31;56582;44.624;20.378;2022-10-30T16:15:47;16.48;79.12
69393;SHT31;56582;44.624;20.378;2022-10-30T16:20:42;16.52;78.41
69393;SHT31;56582;44.624;20.378;2022-10-30T16:23:08;16.54;79.39
69393;SHT31;56582;44.624;20.378;2022-10-30T16:25:34;16.52;80.11
69393;SHT31;56582;44.624;20.378;2022-10-30T16:28:03;16.43;79.95
69393;SHT31;56582;44.624;20.378;2022-10-30T16:30:30;16.35;79.51
69393;SHT31;56582;44.624;20.378;2022-10-30T16:32:57;16.30;81.48
69393;SHT31;56582;44.624;20.378;2022-10-30T16:35:23;16.40;80.43
69393;SHT31;56582;44.624;20.378;2022-10-30T16:37:49;16.52;80.45
69393;SHT31;56582;44.624;20.378;2022-10-30T16:40:21;16.38;79.69
69393;SHT31;56582;44.624;20.378;2022-10-30T16:42:53;16.41;78.98
69393;SHT31;56582;44.624;20.378;2022-10-30T16:47:52;16.31;79.66
69393;SHT31;56582;44.624;20.378;2022-10-30T16:50:28;16.37;79.78
69393;SHT31;56582;44.624;20.378;2022-10-30T16:53:18;16.44;80.31
69393;SHT31;56582;44.624;20.378;2022-10-30T16:55:46;16.40;78.80
69393;SHT31;56582;44.624;20.378;2022-10-30T16:58:13;16.27;78.99
69393;SHT31;56582;44.624;20.378;2022-10-30T17:00:40;16.20;79.04
69393;SHT31;56582;44.624;20.378;2022-10-30T17:03:10;16.04;79.56
69393;SHT31;56582;44.624;20.378;2022-10-30T17:05:36;16.13;79.01
69393;SHT31;56582;44.624;20.378;2022-10-30T17:11:00;16.14;78.76
69393;SHT31;56582;44.624;20.378;2022-10-30T17:13:36;16.28;78.22
69393;SHT31;56582;44.624;20.378;2022-10-30T17:18:40;16.10;79.01
69393;SHT31;56582;44.624;20.378;2022-10-30T17:21:11;16.14;79.06
69393;SHT31;56582;44.624;20.378;2022-10-30T17:23:44;15.85;79.87
69393;SHT31;56582;44.624;20.378;2022-10-30T17:26:11;15.86;79.83
69393;SHT31;56582;44.624;20.378;2022-10-30T17:28:38;15.93;79.32
69393;SHT31;56582;44.624;20.378;2022-10-30T17:34:13;15.93;78.96
69393;SHT31;56582;44.624;20.378;2022-10-30T17:36:39;16.00;78.83
69393;SHT31;56582;44.624;20.378;2022-10-30T17:39:05;16.06;78.32
69393;SHT31;56582;44.624;20.378;2022-10-30T17:41:31;16.14;77.99
69393;SHT31;56582;44.624;20.378;2022-10-30T17:43:56;16.00;78.00
69393;SHT31;56582;44.624;20.378;2022-10-30T17:46:23;15.93;77.95
69393;SHT31;56582;44.624;20.378;2022-10-30T17:48:49;15.85;78.04